Time;durP1;ratioP1;P1;durP2;ratioP2;P2;SDS_P1;SDS_P2;PMS_P1;PMS_P2;Temp;Humidity;BMP_temperature;BMP_pressure;BME280_temperature;BME280_humidity;BME280_pressure;Samples;Min_cycle;Max_cycle;Signal;HPM_P1;HPM_P2
2023/04/30 00:02:16;;;;;;;48.87;23.30;;;12.60;99.90;;;;;;5041916;28;20539;-61
2023/04/30 00:04:44;;;;;;;42.13;22.97;;;12.50;99.90;;;;;;5056946;28;20880;-61
2023/04/30 00:07:11;;;;;;;35.80;20.13;;;12.60;99.90;;;;;;5041334;28;20487;-61
2023/04/30 00:09:37;;;;;;;46.53;22.40;;;12.50;99.90;;;;;;5065553;28;20487;-61
2023/04/30 00:12:05;;;;;;;46.27;22.50;;;12.50;99.90;;;;;;5026201;28;20486;-61
2023/04/30 00:14:31;;;;;;;50.73;24.70;;;12.40;99.90;;;;;;5052461;28;20513;-61
2023/04/30 00:16:58;;;;;;;47.27;20.70;;;12.50;99.90;;;;;;5055108;28;20483;-61
2023/04/30 00:19:25;;;;;;;62.53;28.47;;;11.60;99.90;;;;;;5059427;28;20574;-62
2023/04/30 00:21:53;;;;;;;47.83;23.47;;;12.50;99.90;;;;;;5057106;28;20484;-61
2023/04/30 00:24:19;;;;;;;44.70;21.43;;;12.50;99.90;;;;;;5055026;28;20537;-61
2023/04/30 00:26:46;;;;;;;35.30;20.63;;;12.40;99.90;;;;;;5051286;28;20838;-61
2023/04/30 00:29:13;;;;;;;45.73;23.70;;;12.40;99.90;;;;;;5052815;28;20561;-61
2023/04/30 00:31:40;;;;;;;45.20;22.10;;;12.40;99.90;;;;;;5063981;28;20478;-61
2023/04/30 00:34:07;;;;;;;41.13;20.73;;;12.30;99.90;;;;;;5062994;28;20779;-62
2023/04/30 00:36:34;;;;;;;49.43;24.63;;;12.30;99.90;;;;;;5053504;28;20478;-61
2023/04/30 00:39:02;;;;;;;34.63;20.30;;;12.30;99.90;;;;;;5044946;28;20653;-62
2023/04/30 00:41:30;;;;;;;47.80;23.97;;;12.30;99.90;;;;;;5043525;28;20562;-61
2023/04/30 00:43:56;;;;;;;37.53;20.87;;;12.30;99.90;;;;;;5049942;28;20483;-61
2023/04/30 00:46:23;;;;;;;53.17;24.23;;;12.30;99.90;;;;;;5053242;28;20475;-62
2023/04/30 00:48:50;;;;;;;37.63;20.70;;;12.30;99.90;;;;;;5054090;28;20536;-61
2023/04/30 00:51:16;;;;;;;46.00;23.23;;;12.30;99.90;;;;;;5053238;28;20478;-62
2023/04/30 00:53:44;;;;;;;37.43;18.80;;;12.30;99.90;;;;;;5056482;28;20484;-61
2023/04/30 00:56:15;;;;;;;41.97;22.90;;;12.30;99.90;;;;;;5052173;28;20846;-62
2023/04/30 00:58:42;;;;;;;42.73;22.37;;;12.30;99.90;;;;;;5058040;28;21018;-61
2023/04/30 01:01:09;;;;;;;53.70;22.83;;;12.30;99.90;;;;;;5054310;28;20886;-61
2023/04/30 01:03:36;;;;;;;46.30;21.83;;;12.30;99.90;;;;;;5053848;28;21459;-61
2023/04/30 01:06:03;;;;;;;43.87;21.93;;;12.20;99.90;;;;;;5054401;28;20833;-61
2023/04/30 01:08:30;;;;;;;50.83;23.60;;;12.30;99.90;;;;;;5051460;28;20492;-61
2023/04/30 01:11:10;;;;;;;47.13;22.53;;;12.20;99.90;;;;;;5062274;28;21636;-61
2023/04/30 01:13:45;;;;;;;36.53;19.30;;;12.20;99.90;;;;;;5052909;28;20797;-60
2023/04/30 01:16:19;;;;;;;47.10;23.23;;;12.40;99.90;;;;;;5037123;27;20478;-60
2023/04/30 01:18:50;;;;;;;35.83;20.23;;;12.20;99.90;;;;;;5041447;28;20979;-61
2023/04/30 01:21:19;;;;;;;55.33;25.53;;;12.20;99.90;;;;;;5044878;28;20939;-61
2023/04/30 01:24:06;;;;;;;37.43;21.70;;;12.30;99.90;;;;;;5056305;28;20532;-61
2023/04/30 01:26:48;;;;;;;54.90;24.70;;;12.20;99.90;;;;;;5047798;28;20487;-61
2023/04/30 01:29:19;;;;;;;47.73;24.30;;;12.30;99.90;;;;;;5055963;28;20469;-61
2023/04/30 01:31:46;;;;;;;42.50;21.73;;;12.30;99.90;;;;;;5057544;28;20812;-61
2023/04/30 01:34:13;;;;;;;45.13;23.53;;;12.30;99.90;;;;;;5048903;28;20482;-61
2023/04/30 01:36:50;;;;;;;49.00;23.50;;;12.30;99.90;;;;;;5053135;28;20480;-61
2023/04/30 01:39:34;;;;;;;54.63;25.60;;;12.30;99.90;;;;;;5048177;28;20597;-61
2023/04/30 01:42:10;;;;;;;41.20;19.80;;;12.40;99.90;;;;;;5047240;28;20576;-61
2023/04/30 01:45:15;;;;;;;43.67;23.17;;;12.50;99.90;;;;;;5047870;28;21013;-61
2023/04/30 01:47:49;;;;;;;40.07;20.83;;;12.50;99.90;;;;;;4980319;28;21166;-61
2023/04/30 01:50:25;;;;;;;51.37;22.03;;;12.50;99.90;;;;;;5030451;28;21063;-62
2023/04/30 01:52:56;;;;;;;36.43;20.23;;;12.50;99.90;;;;;;5056518;28;20830;-62
2023/04/30 01:55:30;;;;;;;63.50;26.70;;;12.50;99.90;;;;;;5059423;28;20478;-62
2023/04/30 01:57:59;;;;;;;39.30;21.17;;;12.50;99.90;;;;;;5048082;28;20482;-61
2023/04/30 02:00:29;;;;;;;68.50;27.30;;;12.50;99.90;;;;;;5049282;28;21116;-61
2023/04/30 02:02:56;;;;;;;35.87;18.60;;;12.50;99.90;;;;;;5049939;28;20552;-61
2023/04/30 02:05:23;;;;;;;44.27;22.57;;;12.50;99.90;;;;;;5043606;28;20475;-62
2023/04/30 02:07:51;;;;;;;37.20;20.33;;;12.50;99.90;;;;;;5047710;28;20490;-61
2023/04/30 02:10:28;;;;;;;60.70;25.70;;;12.50;99.90;;;;;;5059130;28;20596;-61
2023/04/30 02:12:55;;;;;;;41.23;22.07;;;12.50;99.90;;;;;;5057866;28;20503;-62
2023/04/30 02:15:21;;;;;;;63.67;25.40;;;12.50;99.90;;;;;;5054816;28;20477;-62
2023/04/30 02:17:50;;;;;;;44.20;20.83;;;12.50;99.90;;;;;;5048194;28;20488;-62
2023/04/30 02:20:17;;;;;;;46.00;22.30;;;12.50;99.90;;;;;;5066033;27;21033;-61
2023/04/30 02:22:44;;;;;;;42.17;21.43;;;12.50;99.90;;;;;;5079219;28;20461;-61
2023/04/30 02:25:11;;;;;;;47.83;21.67;;;12.50;99.90;;;;;;5048034;27;21077;-61
2023/04/30 02:27:38;;;;;;;55.93;24.37;;;12.50;99.90;;;;;;5066956;28;20722;-61
2023/04/30 02:30:06;;;;;;;45.43;22.63;;;12.50;99.90;;;;;;5044366;28;20479;-61
2023/04/30 02:32:33;;;;;;;48.67;21.70;;;12.50;99.90;;;;;;5045961;28;20475;-61
2023/04/30 02:35:01;;;;;;;51.93;23.60;;;12.50;99.90;;;;;;5048587;28;20475;-61
2023/04/30 02:37:28;;;;;;;74.43;28.93;;;;;;;;;;5071116;28;20480;-62
2023/04/30 02:39:54;;;;;;;40.00;20.80;;;12.40;99.90;;;;;;5050196;28;20529;-62
2023/04/30 02:42:21;;;;;;;73.43;26.67;;;;;;;;;;5057485;28;20919;-61
2023/04/30 02:44:48;;;;;;;44.07;21.17;;;12.50;99.90;;;;;;5056143;28;20487;-61
2023/04/30 02:47:15;;;;;;;62.07;26.13;;;;;;;;;;5054000;28;20832;-61
2023/04/30 02:49:42;;;;;;;50.90;22.40;;;;;;;;;;5051890;28;20955;-61
2023/04/30 02:52:10;;;;;;;49.63;22.37;;;13.80;99.90;;;;;;5047123;28;20755;-62
2023/04/30 02:54:37;;;;;;;59.93;23.20;;;12.50;99.90;;;;;;5042020;28;21062;-62
2023/04/30 02:57:04;;;;;;;54.00;23.93;;;12.40;99.90;;;;;;5065594;27;20607;-61
2023/04/30 02:59:31;;;;;;;69.13;26.13;;;;;;;;;;5051409;27;20479;-61
2023/04/30 03:01:58;;;;;;;45.03;22.10;;;16.70;99.90;;;;;;5054897;28;20519;-61
2023/04/30 03:04:25;;;;;;;75.67;27.23;;;12.50;99.90;;;;;;5048660;28;20471;-61
2023/04/30 03:06:52;;;;;;;48.37;23.73;;;;;;;;;;5055081;27;20473;-61
2023/04/30 03:09:20;;;;;;;79.70;29.93;;;12.40;99.90;;;;;;5067570;28;20482;-61
2023/04/30 03:11:47;;;;;;;49.47;24.10;;;12.40;99.90;;;;;;5065748;28;21018;-61
2023/04/30 03:14:14;;;;;;;56.00;24.13;;;12.40;99.90;;;;;;5063672;27;20696;-61
2023/04/30 03:16:41;;;;;;;49.27;23.90;;;;;;;;;;5074547;27;20849;-60
2023/04/30 03:19:08;;;;;;;50.27;24.57;;;;;;;;;;5063040;28;20478;-61
2023/04/30 03:21:35;;;;;;;53.03;24.97;;;10.10;99.20;;;;;;5082173;27;20728;-61
2023/04/30 03:24:01;;;;;;;49.03;24.43;;;12.20;99.90;;;;;;5060852;28;20492;-61
2023/04/30 03:26:29;;;;;;;75.40;28.90;;;12.30;99.90;;;;;;5056306;28;21041;-61
2023/04/30 03:28:56;;;;;;;46.13;23.23;;;12.20;99.90;;;;;;5055635;27;20520;-61
2023/04/30 03:31:23;;;;;;;72.97;28.77;;;;;;;;;;5078189;28;20471;-61
2023/04/30 03:33:50;;;;;;;38.47;21.00;;;;;;;;;;5048093;28;20483;-61
2023/04/30 03:36:17;;;;;;;67.80;26.77;;;14.20;99.90;;;;;;5078636;28;20889;-61
2023/04/30 03:38:44;;;;;;;127.20;40.73;;;;;;;;;;5051417;28;20486;-61
2023/04/30 03:41:11;;;;;;;50.40;25.73;;;;;;;;;;5060272;28;20952;-61
2023/04/30 03:43:39;;;;;;;46.00;24.20;;;12.00;99.90;;;;;;5059790;28;20494;-60
2023/04/30 03:46:06;;;;;;;45.77;23.50;;;;;;;;;;5077330;28;20554;-61
2023/04/30 03:48:33;;;;;;;63.23;25.13;;;;;;;;;;5059931;28;20481;-61
2023/04/30 03:51:00;;;;;;;45.73;21.60;;;11.90;99.90;;;;;;5065713;27;20466;-60
2023/04/30 03:53:27;;;;;;;76.53;25.60;;;;;;;;;;5077413;27;20483;-61
2023/04/30 03:55:54;;;;;;;49.07;24.47;;;;;;;;;;5090262;27;20483;-61
2023/04/30 03:58:21;;;;;;;85.87;29.20;;;;;;;;;;5045804;28;20473;-60
2023/04/30 04:00:50;;;;;;;45.03;24.23;;;11.90;99.90;;;;;;5071014;28;20534;-61
2023/04/30 04:03:17;;;;;;;64.77;25.50;;;;;;;;;;5091028;27;21005;-61
2023/04/30 04:05:44;;;;;;;52.63;24.03;;;;;;;;;;5057258;28;20498;-61
2023/04/30 04:08:11;;;;;;;52.20;25.43;;;11.90;99.90;;;;;;5050567;27;20479;-61
2023/04/30 04:10:39;;;;;;;44.80;23.67;;;12.00;99.90;;;;;;5097885;27;20472;-61
2023/04/30 04:13:06;;;;;;;42.63;22.93;;;12.00;99.90;;;;;;5072926;27;20473;-61
2023/04/30 04:15:33;;;;;;;51.50;24.67;;;12.00;99.90;;;;;;5076989;28;20980;-61
2023/04/30 04:18:01;;;;;;;46.07;23.60;;;12.00;99.90;;;;;;5053485;28;20881;-61
2023/04/30 04:20:28;;;;;;;64.20;28.23;;;12.00;99.90;;;;;;5069560;28;20470;-62
2023/04/30 04:22:55;;;;;;;39.53;23.33;;;12.00;99.90;;;;;;5052846;28;20475;-61
2023/04/30 04:25:23;;;;;;;60.27;28.37;;;12.00;99.90;;;;;;5057688;28;21380;-61
2023/04/30 04:27:50;;;;;;;35.60;21.23;;;12.10;99.90;;;;;;5048875;28;20535;-60
2023/04/30 04:30:17;;;;;;;50.50;24.97;;;12.10;99.90;;;;;;5060253;28;20582;-61
2023/04/30 04:32:48;;;;;;;37.83;22.80;;;12.10;99.90;;;;;;5051704;28;20486;-61
2023/04/30 04:35:17;;;;;;;40.60;22.00;;;12.10;99.90;;;;;;5062391;28;20483;-61
2023/04/30 04:37:44;;;;;;;37.70;21.90;;;12.10;99.90;;;;;;5049092;28;20475;-60
2023/04/30 04:40:12;;;;;;;34.80;22.67;;;12.10;99.90;;;;;;5073347;27;20481;-61
2023/04/30 04:42:39;;;;;;;35.40;21.27;;;12.10;99.90;;;;;;5076164;28;20558;-61
2023/04/30 04:45:07;;;;;;;33.87;20.07;;;12.10;99.90;;;;;;5060198;28;20482;-60
2023/04/30 04:47:34;;;;;;;44.17;24.23;;;12.10;99.90;;;;;;5069337;27;20477;-61
2023/04/30 04:50:01;;;;;;;40.73;22.80;;;12.10;99.90;;;;;;5090518;27;21048;-61
2023/04/30 04:52:29;;;;;;;61.70;27.50;;;12.10;99.90;;;;;;5059860;27;20487;-61
2023/04/30 04:54:55;;;;;;;34.80;21.10;;;12.10;99.90;;;;;;5086789;27;20526;-61
2023/04/30 04:57:22;;;;;;;73.50;31.67;;;12.10;99.90;;;;;;5067611;27;20529;-61
2023/04/30 04:59:49;;;;;;;46.77;27.03;;;12.10;99.90;;;;;;5058348;27;21048;-61
2023/04/30 05:02:16;;;;;;;41.00;22.97;;;12.10;99.90;;;;;;5088598;27;20504;-61
2023/04/30 05:04:42;;;;;;;41.17;22.13;;;12.10;99.90;;;;;;5078552;28;20540;-60
2023/04/30 05:07:09;;;;;;;40.87;23.40;;;12.10;99.90;;;;;;5061062;28;20482;-61
2023/04/30 05:09:37;;;;;;;47.97;23.87;;;12.10;99.90;;;;;;5059693;28;20478;-60
2023/04/30 05:12:05;;;;;;;37.47;23.57;;;12.20;99.90;;;;;;5054227;28;20945;-61
2023/04/30 05:14:31;;;;;;;55.67;29.57;;;12.30;99.90;;;;;;5070714;28;20478;-61
2023/04/30 05:16:58;;;;;;;39.17;23.37;;;12.30;99.90;;;;;;5055888;28;20495;-61
2023/04/30 05:19:25;;;;;;;63.87;29.17;;;12.40;99.90;;;;;;5056525;28;20799;-61
2023/04/30 05:21:52;;;;;;;43.13;24.50;;;12.40;99.90;;;;;;5050220;28;20490;-61
2023/04/30 05:24:18;;;;;;;49.73;26.07;;;12.50;99.90;;;;;;5085950;27;20488;-61
2023/04/30 05:26:46;;;;;;;44.17;24.40;;;12.50;99.90;;;;;;5080292;27;20465;-61
2023/04/30 05:29:13;;;;;;;47.53;24.57;;;12.50;99.90;;;;;;5080513;27;20479;-61
2023/04/30 05:31:40;;;;;;;47.27;24.80;;;12.60;99.90;;;;;;5060008;28;20490;-61
2023/04/30 05:34:07;;;;;;;42.47;24.37;;;12.70;99.90;;;;;;5065919;28;21063;-60
2023/04/30 05:36:34;;;;;;;41.37;22.43;;;12.70;99.90;;;;;;5072758;28;21007;-61
2023/04/30 05:39:00;;;;;;;45.53;24.93;;;12.70;99.90;;;;;;5057248;27;20465;-60
2023/04/30 05:41:28;;;;;;;53.73;27.50;;;12.80;99.90;;;;;;5065027;28;20483;-61
2023/04/30 05:43:56;;;;;;;33.83;21.40;;;12.90;99.90;;;;;;5047116;28;20498;-61
2023/04/30 05:46:23;;;;;;;52.73;28.77;;;13.00;99.90;;;;;;5058058;28;20539;-61
2023/04/30 05:48:49;;;;;;;39.50;23.30;;;13.20;99.90;;;;;;5075915;27;20486;-60
2023/04/30 05:51:16;;;;;;;43.57;25.57;;;13.30;99.90;;;;;;5079020;28;20473;-61
2023/04/30 05:53:43;;;;;;;41.43;24.00;;;13.30;99.90;;;;;;5055174;28;20535;-61
2023/04/30 05:56:11;;;;;;;36.23;22.20;;;13.30;99.90;;;;;;5078580;27;20490;-61
2023/04/30 05:58:38;;;;;;;37.10;23.20;;;13.40;99.90;;;;;;5065695;27;20858;-61
2023/04/30 06:01:09;;;;;;;35.00;22.30;;;13.50;99.90;;;;;;5085435;27;20468;-60
2023/04/30 06:03:37;;;;;;;32.87;20.27;;;13.60;99.90;;;;;;5068191;27;20500;-60
2023/04/30 06:06:04;;;;;;;37.40;22.10;;;13.60;99.40;;;;;;5079671;27;20573;-61
2023/04/30 06:08:31;;;;;;;57.17;26.53;;;;;;;;;;5075222;27;21502;-61
2023/04/30 06:10:58;;;;;;;34.37;19.10;;;13.70;99.40;;;;;;5090930;27;20890;-60
2023/04/30 06:13:24;;;;;;;49.87;26.37;;;13.80;99.20;;;;;;5070782;28;20501;-61
2023/04/30 06:15:51;;;;;;;34.73;20.13;;;13.80;99.00;;;;;;5072418;27;20481;-61
2023/04/30 06:18:19;;;;;;;40.50;23.53;;;13.90;98.80;;;;;;5075231;28;20485;-61
2023/04/30 06:20:46;;;;;;;27.83;18.23;;;13.90;99.10;;;;;;5056956;28;20489;-61
2023/04/30 06:23:13;;;;;;;32.10;21.43;;;;;;;;;;5081853;27;20754;-61
2023/04/30 06:25:40;;;;;;;33.30;20.80;;;14.10;99.20;;;;;;5075453;27;20500;-61
2023/04/30 06:28:41;;;;;;;31.00;18.30;;;14.40;98.80;;;;;;5074396;28;20877;-61
2023/04/30 06:31:08;;;;;;;30.70;15.87;;;14.50;98.10;;;;;;5048542;28;20706;-61
2023/04/30 06:33:36;;;;;;;32.43;20.00;;;14.70;98.00;;;;;;5071002;27;20840;-61
2023/04/30 06:36:02;;;;;;;32.23;18.07;;;14.90;97.80;;;;;;5047258;28;20874;-61
2023/04/30 06:38:29;;;;;;;55.63;24.63;;;15.00;97.80;;;;;;5081918;28;20629;-61
2023/04/30 06:40:56;;;;;;;22.20;15.53;;;15.10;97.20;;;;;;5084600;27;20483;-62
2023/04/30 06:43:22;;;;;;;40.53;21.93;;;15.40;97.30;;;;;;5087483;27;20499;-63
2023/04/30 06:45:49;;;;;;;24.97;17.60;;;15.50;97.00;;;;;;5066412;28;20477;-62
2023/04/30 06:48:16;;;;;;;31.57;17.67;;;15.60;96.80;;;;;;5056883;28;20479;-61
2023/04/30 06:50:44;;;;;;;30.70;17.53;;;15.70;96.50;;;;;;5066350;28;20851;-61
2023/04/30 06:53:11;;;;;;;30.57;17.50;;;15.80;96.10;;;;;;5080882;28;20947;-61
2023/04/30 06:55:38;;;;;;;27.83;17.77;;;15.80;96.10;;;;;;5083889;28;20920;-60
2023/04/30 06:58:05;;;;;;;28.03;14.97;;;15.90;96.40;;;;;;5091668;28;20480;-61
2023/04/30 07:00:32;;;;;;;29.40;18.20;;;16.00;96.20;;;;;;5048246;28;20490;-61
2023/04/30 07:03:01;;;;;;;26.53;17.37;;;16.10;96.30;;;;;;5076961;28;20485;-61
2023/04/30 07:05:28;;;;;;;30.63;16.70;;;16.20;95.80;;;;;;5068184;28;20992;-61
2023/04/30 07:07:56;;;;;;;18.27;10.10;;;16.20;95.70;;;;;;5072998;28;20806;-61
2023/04/30 07:10:23;;;;;;;37.07;20.90;;;16.20;95.50;;;;;;5077608;28;20480;-61
2023/04/30 07:12:50;;;;;;;23.63;13.97;;;16.20;95.40;;;;;;5067387;28;20482;-61
2023/04/30 07:15:16;;;;;;;26.87;17.70;;;16.20;95.40;;;;;;5044725;28;20487;-61
2023/04/30 07:17:43;;;;;;;27.30;11.40;;;16.20;95.00;;;;;;5052350;28;20610;-62
2023/04/30 07:20:13;;;;;;;25.00;14.07;;;16.30;96.10;;;;;;5073341;28;20486;-62
2023/04/30 07:22:40;;;;;;;65.53;16.87;;;16.40;95.50;;;;;;5067162;28;20483;-62
2023/04/30 07:25:09;;;;;;;30.50;15.93;;;16.40;95.10;;;;;;5073126;28;20502;-62
2023/04/30 07:27:35;;;;;;;19.67;13.30;;;16.30;94.60;;;;;;5049529;28;20899;-61
2023/04/30 07:30:02;;;;;;;19.10;12.47;;;16.40;95.00;;;;;;5042318;28;20505;-63
2023/04/30 07:32:29;;;;;;;36.17;19.00;;;16.20;94.80;;;;;;5071036;28;20473;-61
2023/04/30 07:34:56;;;;;;;24.70;13.07;;;16.30;95.00;;;;;;5076871;28;20505;-61
2023/04/30 07:37:23;;;;;;;33.73;19.03;;;16.40;95.50;;;;;;5051526;28;21025;-61
2023/04/30 07:39:50;;;;;;;20.73;14.57;;;16.50;94.80;;;;;;5082256;27;20483;-61
2023/04/30 07:42:18;;;;;;;26.97;13.70;;;16.60;94.80;;;;;;5070862;28;20532;-61
2023/04/30 07:44:45;;;;;;;21.57;13.20;;;16.70;94.50;;;;;;5066574;28;20551;-61
2023/04/30 07:47:11;;;;;;;21.83;13.13;;;16.80;94.20;;;;;;5068248;27;20486;-62
2023/04/30 07:49:38;;;;;;;27.27;14.70;;;16.90;94.50;;;;;;5087583;27;20579;-61
2023/04/30 07:52:07;;;;;;;24.60;14.37;;;17.00;94.80;;;;;;5047042;28;20498;-61
2023/04/30 07:54:35;;;;;;;26.77;16.47;;;17.20;94.80;;;;;;5073506;27;20608;-62
2023/04/30 07:57:02;;;;;;;27.33;14.67;;;17.60;95.60;;;;;;5065603;27;20479;-62
2023/04/30 07:59:30;;;;;;;29.83;18.40;;;17.80;94.70;;;;;;5057163;28;20475;-62
2023/04/30 08:01:56;;;;;;;18.93;13.90;;;18.20;94.70;;;;;;5063777;28;20877;-62
2023/04/30 08:04:23;;;;;;;29.80;17.33;;;18.10;94.20;;;;;;5085464;27;20488;-62
2023/04/30 08:06:50;;;;;;;18.67;12.87;;;17.90;93.30;;;;;;5079564;27;20513;-62
2023/04/30 08:09:17;;;;;;;32.47;17.10;;;17.70;93.00;;;;;;5061025;28;20573;-62
2023/04/30 08:11:43;;;;;;;19.97;13.83;;;17.70;93.60;;;;;;5058732;28;20492;-62
2023/04/30 08:14:10;;;;;;;23.50;15.43;;;17.60;92.90;;;;;;5059546;27;20501;-62
2023/04/30 08:16:38;;;;;;;19.63;12.60;;;17.60;93.70;;;;;;5077141;27;20843;-62
2023/04/30 08:19:05;;;;;;;16.87;12.23;;;17.60;93.40;;;;;;5065957;27;20902;-62
2023/04/30 08:21:32;;;;;;;27.70;16.63;;;17.60;93.60;;;;;;5095316;27;20481;-62
2023/04/30 08:23:59;;;;;;;16.93;10.90;;;17.80;93.90;;;;;;5072954;28;20536;-61
2023/04/30 08:26:26;;;;;;;31.43;19.23;;;17.90;92.50;;;;;;5065519;28;20484;-62
2023/04/30 08:28:52;;;;;;;18.13;11.40;;;17.90;92.40;;;;;;5079288;27;21143;-62
2023/04/30 08:31:19;;;;;;;21.03;12.67;;;;;;;;;;5060434;28;20936;-62
2023/04/30 08:33:47;;;;;;;14.17;10.80;;;18.20;93.80;;;;;;5090403;27;20954;-63
2023/04/30 08:36:14;;;;;;;17.27;11.27;;;18.40;92.20;;;;;;5090087;27;20485;-62
2023/04/30 08:38:41;;;;;;;22.37;10.67;;;18.50;91.30;;;;;;5076669;27;20484;-61
2023/04/30 08:41:11;;;;;;;27.53;14.00;;;18.40;91.40;;;;;;5055076;28;20475;-62
2023/04/30 08:43:38;;;;;;;16.80;11.73;;;18.40;91.90;;;;;;5054738;27;20905;-62
2023/04/30 08:46:05;;;;;;;19.90;10.33;;;18.20;90.80;;;;;;5071008;27;20502;-62
2023/04/30 08:48:33;;;;;;;23.10;12.70;;;18.30;92.10;;;;;;5082679;28;20483;-62
2023/04/30 08:51:02;;;;;;;17.03;9.93;;;18.20;91.40;;;;;;5061556;27;20485;-62
2023/04/30 08:53:30;;;;;;;34.00;13.13;;;18.00;90.80;;;;;;5087946;27;20468;-62
2023/04/30 08:55:57;;;;;;;12.27;8.77;;;17.90;91.30;;;;;;5082610;27;20581;-61
2023/04/30 08:58:23;;;;;;;22.80;13.43;;;17.90;90.50;;;;;;5051799;28;20575;-62
2023/04/30 09:00:50;;;;;;;11.73;7.80;;;18.10;91.30;;;;;;5084363;27;20576;-62
2023/04/30 09:03:17;;;;;;;15.87;10.30;;;18.20;91.20;;;;;;5067621;28;20489;-62
2023/04/30 09:05:44;;;;;;;12.97;8.37;;;18.20;90.60;;;;;;5041785;28;20487;-61
2023/04/30 09:08:17;;;;;;;28.87;9.43;;;18.10;90.20;;;;;;5052100;28;20487;-62
2023/04/30 09:10:44;;;;;;;15.97;9.30;;;18.30;89.30;;;;;;5045637;28;20482;-62
2023/04/30 09:13:12;;;;;;;17.30;9.90;;;18.50;90.30;;;;;;5046905;28;20486;-62
2023/04/30 09:15:40;;;;;;;14.50;7.23;;;18.40;86.70;;;;;;5058611;28;20910;-61
2023/04/30 09:18:13;;;;;;;18.10;11.43;;;18.30;85.40;;;;;;5045759;28;20795;-61
2023/04/30 09:20:55;;;;;;;11.13;7.93;;;18.60;89.40;;;;;;5056381;28;20991;-61
2023/04/30 09:23:23;;;;;;;23.10;12.20;;;18.50;85.10;;;;;;5051577;28;20888;-62
2023/04/30 09:25:50;;;;;;;7.60;5.17;;;18.40;83.70;;;;;;5069726;28;20478;-62
2023/04/30 09:28:22;;;;;;;16.17;8.47;;;18.10;82.40;;;;;;5084514;27;20969;-62
2023/04/30 09:30:49;;;;;;;23.93;11.90;;;18.20;85.40;;;;;;5071314;28;20467;-62
2023/04/30 09:33:16;;;;;;;15.33;10.23;;;;;;;;;;5047276;28;20479;-62
2023/04/30 09:35:43;;;;;;;10.57;7.93;;;17.70;85.20;;;;;;5046276;28;20998;-62
2023/04/30 09:41:07;;;;;;;16.93;9.73;;;17.30;86.70;;;;;;5089157;27;20570;-61
2023/04/30 09:43:34;;;;;;;24.03;11.40;;;17.40;87.90;;;;;;5102582;27;20916;-61
2023/04/30 09:46:00;;;;;;;10.90;7.93;;;17.70;90.30;;;;;;5091625;28;20481;-61
2023/04/30 09:48:28;;;;;;;12.90;10.60;;;18.00;90.60;;;;;;5073405;27;20604;-62
2023/04/30 09:50:54;;;;;;;9.17;7.73;;;18.00;87.30;;;;;;5108600;27;20488;-62
2023/04/30 09:53:22;;;;;;;8.43;7.57;;;18.10;88.40;;;;;;5112358;27;20812;-61
2023/04/30 09:55:51;;;;;;;6.80;6.20;;;18.10;88.10;;;;;;5098366;27;20480;-61
2023/04/30 09:58:19;;;;;;;11.73;10.47;;;17.90;86.90;;;;;;5103377;27;20830;-61
2023/04/30 10:00:48;;;;;;;11.33;6.60;;;17.90;87.10;;;;;;5103758;27;20466;-61
2023/04/30 10:03:15;;;;;;;10.17;8.87;;;17.80;88.30;;;;;;5092716;27;20488;-61
2023/04/30 10:05:45;;;;;;;8.90;7.40;;;17.80;87.40;;;;;;5086307;27;20487;-61
2023/04/30 10:08:18;;;;;;;13.03;7.40;;;17.70;86.40;;;;;;5097962;27;20469;-61
2023/04/30 10:10:49;;;;;;;10.63;8.30;;;17.60;87.50;;;;;;5090696;27;20480;-61
2023/04/30 10:13:20;;;;;;;11.07;8.60;;;17.60;88.40;;;;;;5118507;27;20479;-62
2023/04/30 10:15:51;;;;;;;7.50;6.73;;;17.60;89.70;;;;;;5099449;27;20531;-62
2023/04/30 10:18:21;;;;;;;8.43;7.57;;;17.60;88.20;;;;;;5097390;27;20482;-62
2023/04/30 10:20:53;;;;;;;14.10;7.20;;;17.50;87.00;;;;;;5092075;27;20585;-62
2023/04/30 10:23:21;;;;;;;8.17;7.30;;;17.40;88.60;;;;;;5079146;27;20976;-62
2023/04/30 10:25:48;;;;;;;8.73;7.83;;;17.50;90.10;;;;;;5075534;28;20478;-62
2023/04/30 10:28:15;;;;;;;11.37;9.07;;;17.60;89.80;;;;;;5122365;27;20487;-62
2023/04/30 10:30:44;;;;;;;8.93;8.03;;;17.70;89.40;;;;;;5087109;27;20992;-62
2023/04/30 10:33:19;;;;;;;13.70;8.90;;;18.00;90.20;;;;;;5109417;27;20875;-62
2023/04/30 10:35:49;;;;;;;8.70;7.00;;;18.20;90.40;;;;;;5083144;27;20687;-62
2023/04/30 10:38:23;;;;;;;12.50;7.60;;;;;;;;;;5118071;27;20492;-62
2023/04/30 10:40:50;;;;;;;9.37;6.43;;;18.60;89.90;;;;;;5098754;27;20481;-62
2023/04/30 10:43:19;;;;;;;10.80;7.67;;;18.70;90.70;;;;;;5132102;27;20856;-62
2023/04/30 10:45:47;;;;;;;13.83;8.83;;;18.60;87.80;;;;;;5084767;27;20553;-62
2023/04/30 10:48:23;;;;;;;7.97;7.17;;;18.70;89.50;;;;;;5107841;27;20899;-62
2023/04/30 10:50:51;;;;;;;8.40;6.90;;;18.60;88.20;;;;;;5090828;27;20478;-62
2023/04/30 10:53:19;;;;;;;10.87;7.80;;;18.50;90.00;;;;;;5121716;27;20484;-62
2023/04/30 10:55:48;;;;;;;9.13;7.03;;;18.50;90.80;;;;;;5087043;27;21023;-62
2023/04/30 10:58:25;;;;;;;7.67;6.93;;;18.50;89.70;;;;;;5097604;27;20482;-61
2023/04/30 11:01:03;;;;;;;7.27;6.57;;;18.40;89.40;;;;;;5075999;27;20765;-62
2023/04/30 11:03:31;;;;;;;16.93;12.30;;;18.40;90.30;;;;;;5106710;27;20648;-62
2023/04/30 11:06:02;;;;;;;12.87;7.50;;;18.40;90.20;;;;;;5081611;27;20487;-62
2023/04/30 11:08:36;;;;;;;10.30;8.73;;;18.50;90.10;;;;;;5083807;28;20550;-62
2023/04/30 11:11:04;;;;;;;8.07;6.67;;;18.50;89.90;;;;;;5086758;28;20493;-61
2023/04/30 11:13:40;;;;;;;12.00;10.30;;;18.40;88.20;;;;;;5106301;27;20482;-62
2023/04/30 11:16:08;;;;;;;10.80;7.70;;;18.30;87.70;;;;;;5068725;27;21100;-62
2023/04/30 11:18:41;;;;;;;11.20;7.20;;;18.30;87.90;;;;;;5067504;28;20478;-62
2023/04/30 11:21:09;;;;;;;12.57;7.40;;;20.60;88.70;;;;;;5103112;27;20655;-62
2023/04/30 11:23:37;;;;;;;8.00;6.40;;;18.30;85.50;;;;;;5082589;27;20534;-62
2023/04/30 11:26:04;;;;;;;6.90;6.30;;;;;;;;;;5085631;27;20490;-62
2023/04/30 11:28:34;;;;;;;11.13;9.10;;;18.30;84.90;;;;;;5070774;28;20989;-62
2023/04/30 11:31:02;;;;;;;14.83;7.27;;;18.30;82.00;;;;;;5078154;27;21128;-62
2023/04/30 11:33:31;;;;;;;9.83;7.60;;;18.70;85.20;;;;;;5069305;28;20827;-62
2023/04/30 11:36:00;;;;;;;7.77;6.20;;;18.90;83.30;;;;;;5066981;28;20474;-62
2023/04/30 11:38:28;;;;;;;10.10;6.07;;;19.10;80.90;;;;;;5068982;28;20676;-62
2023/04/30 11:40:56;;;;;;;6.53;4.90;;;19.40;82.40;;;;;;5070978;28;22269;-62
2023/04/30 11:43:24;;;;;;;8.70;5.70;;;19.40;79.20;;;;;;5072963;28;21004;-62
2023/04/30 11:46:08;;;;;;;6.10;3.07;;;19.20;80.20;;;;;;5079038;28;20486;-63
2023/04/30 11:48:38;;;;;;;7.80;7.00;;;19.60;79.00;;;;;;5084538;27;20868;-63
2023/04/30 11:51:06;;;;;;;8.33;4.90;;;19.70;77.90;;;;;;5063022;27;20470;-63
2023/04/30 11:53:33;;;;;;;9.23;7.93;;;19.70;77.80;;;;;;5097657;27;20486;-63
2023/04/30 11:56:03;;;;;;;5.17;4.43;;;19.40;79.80;;;;;;5080980;27;20524;-63
2023/04/30 11:58:34;;;;;;;9.13;8.13;;;19.60;84.40;;;;;;5070252;28;20517;-62
2023/04/30 12:01:01;;;;;;;11.00;5.97;;;19.90;84.30;;;;;;5085055;27;20482;-63
2023/04/30 12:03:28;;;;;;;14.63;9.57;;;20.20;82.80;;;;;;5067601;27;20481;-63
2023/04/30 12:05:56;;;;;;;5.50;5.00;;;20.20;81.20;;;;;;5087718;27;21149;-63
2023/04/30 12:08:23;;;;;;;13.87;9.40;;;20.30;83.10;;;;;;5094686;27;20438;-63
2023/04/30 12:10:50;;;;;;;9.57;6.30;;;20.40;83.00;;;;;;5077587;27;21042;-63
2023/04/30 12:13:16;;;;;;;8.00;6.20;;;20.20;81.60;;;;;;5090142;27;20555;-63
2023/04/30 12:15:56;;;;;;;5.40;4.90;;;20.10;79.70;;;;;;5085906;27;20499;-63
2023/04/30 12:18:23;;;;;;;17.13;8.00;;;20.00;82.40;;;;;;5081696;28;20622;-63
2023/04/30 12:20:50;;;;;;;9.07;5.40;;;20.00;82.50;;;;;;5073414;28;21060;-63
2023/04/30 12:23:19;;;;;;;13.27;8.30;;;19.70;78.00;;;;;;5066416;28;20486;-63
2023/04/30 12:25:46;;;;;;;12.23;5.70;;;19.80;80.10;;;;;;5074737;28;20944;-62
2023/04/30 12:28:13;;;;;;;7.80;5.70;;;19.80;78.50;;;;;;5078656;28;20485;-63
2023/04/30 12:30:42;;;;;;;10.10;6.43;;;20.00;82.70;;;;;;5083642;27;20574;-63
2023/04/30 12:33:10;;;;;;;7.60;5.40;;;20.30;81.30;;;;;;5055898;27;20485;-62
2023/04/30 12:35:41;;;;;;;12.33;6.53;;;20.20;81.10;;;;;;5091521;27;21044;-62
2023/04/30 12:38:08;;;;;;;17.27;8.93;;;20.30;79.50;;;;;;5091116;27;20476;-62
2023/04/30 12:40:36;;;;;;;9.97;7.27;;;20.30;79.90;;;;;;5079343;27;20484;-63
2023/04/30 12:43:05;;;;;;;10.40;5.97;;;20.30;81.00;;;;;;5077798;28;20482;-63
2023/04/30 12:45:50;;;;;;;31.00;11.03;;;20.10;81.60;;;;;;5070217;28;20536;-63
2023/04/30 12:48:17;;;;;;;21.17;7.47;;;19.90;81.50;;;;;;5063978;28;20465;-63